createdAt,value
2018-04-01T00:00:17.205Z,10.00
2018-04-01T00:02:44.183Z,9.50
2018-04-01T00:05:11.083Z,10.17
2018-04-01T00:07:37.966Z,8.03
2018-04-01T00:10:04.859Z,8.77
2018-04-01T00:12:31.758Z,8.70
2018-04-01T00:14:58.658Z,8.87
2018-04-01T00:17:25.548Z,9.07
2018-04-01T00:19:52.445Z,9.60
2018-04-01T00:22:19.352Z,9.27
2018-04-01T00:24:46.234Z,9.97
2018-04-01T00:27:13.133Z,8.50
2018-04-01T00:29:40.026Z,10.03
2018-04-01T00:32:06.913Z,9.20
2018-04-01T00:34:33.832Z,9.43
2018-04-01T00:37:00.723Z,10.67
2018-04-01T00:39:27.722Z,8.80
2018-04-01T00:41:54.695Z,9.10
2018-04-01T00:44:21.591Z,10.30
2018-04-01T00:46:48.580Z,9.83
2018-04-01T00:49:15.485Z,9.57
2018-04-01T00:51:42.376Z,10.20
2018-04-01T00:54:09.267Z,9.73
2018-04-01T00:56:36.255Z,9.37
2018-04-01T00:59:03.151Z,9.37
2018-04-01T01:01:30.034Z,9.90
2018-04-01T01:03:56.930Z,10.00
2018-04-01T01:06:23.818Z,9.90
2018-04-01T01:08:50.718Z,9.60
2018-04-01T01:11:17.619Z,9.50
2018-04-01T01:13:44.502Z,11.53
2018-04-01T01:16:11.414Z,8.97
2018-04-01T01:18:38.328Z,9.23
2018-04-01T01:21:05.218Z,9.30
2018-04-01T01:23:32.115Z,9.10
2018-04-01T01:25:59.019Z,9.20
2018-04-01T01:28:25.914Z,8.60
2018-04-01T01:30:52.808Z,8.80
2018-04-01T01:33:19.710Z,8.67
2018-04-01T01:35:46.595Z,9.57
2018-04-01T01:38:13.486Z,9.77
2018-04-01T01:40:40.389Z,8.80
2018-04-01T01:43:07.271Z,9.80
2018-04-01T01:45:34.193Z,8.60
2018-04-01T01:48:01.099Z,9.70
2018-04-01T01:50:27.988Z,9.90
2018-04-01T01:52:54.903Z,12.07
2018-04-01T01:55:21.801Z,10.40
2018-04-01T01:57:48.691Z,9.73
2018-04-01T02:00:15.587Z,9.83
2018-04-01T02:02:42.482Z,9.33
2018-04-01T02:05:09.373Z,9.70
2018-04-01T02:07:36.275Z,9.97
2018-04-01T02:10:03.183Z,11.23
2018-04-01T02:12:30.073Z,9.40
2018-04-01T02:14:56.958Z,11.10
2018-04-01T02:17:23.859Z,11.07
2018-04-01T02:19:50.752Z,10.57
2018-04-01T02:22:17.639Z,11.17
2018-04-01T02:24:44.544Z,9.77
2018-04-01T02:27:11.435Z,10.80
2018-04-01T02:29:38.336Z,11.93
2018-04-01T02:32:05.245Z,12.07
2018-04-01T02:34:32.138Z,12.80
2018-04-01T02:36:59.027Z,11.33
2018-04-01T02:39:25.985Z,12.90
2018-04-01T02:41:52.875Z,13.00
2018-04-01T02:44:19.764Z,13.27
2018-04-01T02:46:46.670Z,13.10
2018-04-01T02:49:13.555Z,13.57
2018-04-01T02:51:40.541Z,13.87
2018-04-01T02:54:07.442Z,13.80
2018-04-01T02:56:34.348Z,12.83
2018-04-01T02:59:01.289Z,14.23
2018-04-01T03:01:28.230Z,12.80
2018-04-01T03:03:55.127Z,12.37
2018-04-01T03:06:22.018Z,13.37
2018-04-01T03:08:48.927Z,13.60
2018-04-01T03:11:15.816Z,13.37
2018-04-01T03:13:42.714Z,13.33
2018-04-01T03:16:09.611Z,13.43
2018-04-01T03:18:36.520Z,14.30
2018-04-01T03:21:03.415Z,13.70
2018-04-01T03:23:30.533Z,14.00
2018-04-01T03:25:57.438Z,15.50
2018-04-01T03:28:24.327Z,15.77
2018-04-01T03:30:51.228Z,14.40
2018-04-01T03:33:18.194Z,12.93
2018-04-01T03:35:45.102Z,11.90
2018-04-01T03:38:12.018Z,11.77
2018-04-01T03:40:38.906Z,12.90
2018-04-01T03:43:05.790Z,11.70
2018-04-01T03:45:32.690Z,11.07
2018-04-01T03:47:59.668Z,11.77
2018-04-01T03:50:26.610Z,11.03
2018-04-01T03:52:53.513Z,12.03
2018-04-01T03:55:20.404Z,10.63
2018-04-01T03:57:47.301Z,11.33
2018-04-01T04:00:14.293Z,10.20
2018-04-01T04:02:41.210Z,10.83
2018-04-01T04:05:08.102Z,11.47
2018-04-01T04:07:34.997Z,11.57
2018-04-01T04:10:01.902Z,10.60
2018-04-01T04:12:28.815Z,10.13
2018-04-01T04:14:55.711Z,9.90
2018-04-01T04:17:22.607Z,11.03
2018-04-01T04:19:49.493Z,10.07
2018-04-01T04:22:16.399Z,10.33
2018-04-01T04:24:43.285Z,11.03
2018-04-01T04:27:10.167Z,8.87
2018-04-01T04:29:37.067Z,9.43
2018-04-01T04:32:03.956Z,9.40
2018-04-01T04:34:30.838Z,9.50
2018-04-01T04:36:57.731Z,8.83
2018-04-01T04:39:24.618Z,8.80
2018-04-01T04:41:51.516Z,9.87
2018-04-01T04:44:18.414Z,8.53
2018-04-01T04:46:45.334Z,9.23
2018-04-01T04:49:12.218Z,9.23
2018-04-01T04:51:39.570Z,8.87
2018-04-01T04:54:06.480Z,9.00
2018-04-01T04:56:33.361Z,8.43
2018-04-01T04:59:00.270Z,8.93
2018-04-01T05:01:27.174Z,8.53
2018-04-01T05:03:54.059Z,8.73
2018-04-01T05:06:20.959Z,7.93
2018-04-01T05:08:47.895Z,8.93
2018-04-01T05:11:14.779Z,8.63
2018-04-01T05:13:41.682Z,8.20
2018-04-01T05:16:08.582Z,8.53
2018-04-01T05:18:35.511Z,8.40
2018-04-01T05:21:02.410Z,8.50
2018-04-01T05:23:29.294Z,7.37
2018-04-01T05:25:56.179Z,7.90
2018-04-01T05:28:23.083Z,8.80
2018-04-01T05:30:49.967Z,9.17
2018-04-01T05:33:16.854Z,8.50
2018-04-01T05:35:43.752Z,8.30
2018-04-01T05:38:10.666Z,8.70
2018-04-01T05:40:37.545Z,8.50
2018-04-01T05:43:04.446Z,9.27
2018-04-01T05:45:31.344Z,7.80
2018-04-01T05:47:58.236Z,8.33
2018-04-01T05:50:25.150Z,7.93
2018-04-01T05:52:52.031Z,8.10
2018-04-01T05:55:18.906Z,7.37
2018-04-01T05:57:45.817Z,7.17
2018-04-01T06:00:12.771Z,7.70
2018-04-01T06:02:39.659Z,7.07
2018-04-01T06:05:06.559Z,6.67
2018-04-01T06:07:33.439Z,7.13
2018-04-01T06:10:00.321Z,7.80
2018-04-01T06:12:27.218Z,5.80
2018-04-01T06:14:54.116Z,6.40
2018-04-01T06:17:20.999Z,5.90
2018-04-01T06:19:47.987Z,6.50
2018-04-01T06:22:14.966Z,5.73
2018-04-01T06:24:41.851Z,5.70
2018-04-01T06:27:08.755Z,6.40
2018-04-01T06:29:35.695Z,6.30
2018-04-01T06:32:02.570Z,5.23
2018-04-01T06:34:29.508Z,5.43
2018-04-01T06:36:56.386Z,5.83
2018-04-01T06:39:23.270Z,5.30
2018-04-01T06:41:50.162Z,5.90
2018-04-01T06:44:17.050Z,5.23
2018-04-01T06:46:43.934Z,5.07
2018-04-01T06:49:11.333Z,5.27
2018-04-01T06:51:38.219Z,5.70
2018-04-01T06:54:05.094Z,5.20
2018-04-01T06:56:32.101Z,5.00
2018-04-01T06:58:58.997Z,4.90
2018-04-01T07:01:25.891Z,4.73
2018-04-01T07:03:52.786Z,5.33
2018-04-01T07:06:19.675Z,5.40
2018-04-01T07:08:46.612Z,5.37
2018-04-01T07:11:13.509Z,5.80
2018-04-01T07:13:40.655Z,6.10
2018-04-01T07:16:07.539Z,6.43
2018-04-01T07:18:34.444Z,6.00
2018-04-01T07:21:01.327Z,6.60
2018-04-01T07:23:28.211Z,6.03
2018-04-01T07:25:55.111Z,5.80
2018-04-01T07:28:22.054Z,5.60
2018-04-01T07:30:48.938Z,6.67
2018-04-01T07:33:15.879Z,5.40
2018-04-01T07:35:42.910Z,5.73
2018-04-01T07:38:09.790Z,6.57
2018-04-01T07:40:36.685Z,5.47
2018-04-01T07:43:03.581Z,5.90
2018-04-01T07:45:30.478Z,6.40
2018-04-01T07:47:57.370Z,7.17
2018-04-01T07:50:24.302Z,6.93
2018-04-01T07:52:51.188Z,6.77
2018-04-01T07:55:18.216Z,7.40
2018-04-01T07:57:45.119Z,7.53
2018-04-01T08:00:12.016Z,6.43
2018-04-01T08:02:38.913Z,6.33
2018-04-01T08:05:05.803Z,5.80
2018-04-01T08:07:32.691Z,6.07
2018-04-01T08:09:59.656Z,6.27
2018-04-01T08:12:26.545Z,5.70
2018-04-01T08:14:53.518Z,5.10
2018-04-01T08:17:20.395Z,5.60
2018-04-01T08:19:47.295Z,5.30
2018-04-01T08:22:14.182Z,4.80
2018-04-01T08:24:41.279Z,5.67
2018-04-01T08:27:08.163Z,5.70
2018-04-01T08:29:35.052Z,5.60
2018-04-01T08:32:01.938Z,5.90
2018-04-01T08:34:28.872Z,5.73
2018-04-01T08:36:55.810Z,6.07
2018-04-01T08:39:22.714Z,4.90
2018-04-01T08:41:49.602Z,4.80
2018-04-01T08:44:16.519Z,5.43
2018-04-01T08:46:43.426Z,5.20
2018-04-01T08:49:10.330Z,5.37
2018-04-01T08:51:37.297Z,5.10
2018-04-01T08:54:04.198Z,5.10
2018-04-01T08:56:31.154Z,4.80
2018-04-01T08:58:58.118Z,5.00
2018-04-01T09:01:24.979Z,4.70
2018-04-01T09:03:51.877Z,4.60
2018-04-01T09:06:18.767Z,4.60
2018-04-01T09:08:45.667Z,5.13
2018-04-01T09:11:12.551Z,4.80
2018-04-01T09:13:39.443Z,4.50
2018-04-01T09:16:06.339Z,4.73
2018-04-01T09:18:33.229Z,4.20
2018-04-01T09:21:00.115Z,5.20
2018-04-01T09:23:27.167Z,5.40
2018-04-01T09:25:54.123Z,4.87
2018-04-01T09:28:21.083Z,5.87
2018-04-01T09:30:47.993Z,5.40
2018-04-01T09:33:14.890Z,5.90
2018-04-01T09:35:41.801Z,5.33
2018-04-01T09:38:08.748Z,4.80
2018-04-01T09:40:35.634Z,4.23
2018-04-01T09:43:02.526Z,5.30
2018-04-01T09:45:29.442Z,4.97
2018-04-01T09:47:56.425Z,4.97
2018-04-01T09:50:23.319Z,5.17
2018-04-01T09:52:50.235Z,5.97
2018-04-01T09:55:17.118Z,6.73
2018-04-01T09:57:43.995Z,5.27
2018-04-01T10:00:10.917Z,5.80
2018-04-01T10:02:38.337Z,5.13
2018-04-01T10:05:10.267Z,5.30
2018-04-01T10:07:37.707Z,5.73
2018-04-01T10:10:05.146Z,5.40
2018-04-01T10:12:32.587Z,6.17
2018-04-01T10:15:00.034Z,5.80
2018-04-01T10:17:27.455Z,5.37
2018-04-01T10:19:54.885Z,4.80
2018-04-01T10:22:22.335Z,4.87
2018-04-01T10:24:49.779Z,5.77
2018-04-01T10:27:17.211Z,4.83
2018-04-01T10:29:44.647Z,4.97
2018-04-01T10:32:12.062Z,5.20
2018-04-01T10:34:39.555Z,5.20
2018-04-01T10:37:06.994Z,4.33
2018-04-01T10:39:34.419Z,4.83
2018-04-01T10:42:01.838Z,4.60
2018-04-01T10:44:29.341Z,4.60
2018-04-01T10:46:56.818Z,4.43
2018-04-01T10:49:24.252Z,4.03
2018-04-01T10:51:51.690Z,5.00
2018-04-01T10:54:18.678Z,3.87
2018-04-01T10:56:45.566Z,4.63
2018-04-01T10:59:12.466Z,4.57
2018-04-01T11:01:39.432Z,3.97
2018-04-01T11:04:06.324Z,3.30
2018-04-01T11:06:33.301Z,3.23
2018-04-01T11:09:00.249Z,3.80
2018-04-01T11:11:27.195Z,3.40
2018-04-01T11:13:54.093Z,4.43
2018-04-01T11:16:20.979Z,4.17
2018-04-01T11:18:47.881Z,4.53
2018-04-01T11:21:14.811Z,5.40
2018-04-01T11:23:41.712Z,4.60
2018-04-01T11:26:08.606Z,4.80
2018-04-01T11:28:35.530Z,4.83
2018-04-01T11:31:02.419Z,4.17
2018-04-01T11:33:29.303Z,3.87
2018-04-01T11:35:56.207Z,4.27
2018-04-01T11:38:23.099Z,4.60
2018-04-01T11:40:50.005Z,4.80
2018-04-01T11:43:16.909Z,3.90
2018-04-01T11:45:43.796Z,2.90
2018-04-01T11:48:10.685Z,3.00
2018-04-01T11:50:37.587Z,3.00
2018-04-01T11:53:04.465Z,3.00
2018-04-01T11:55:31.354Z,2.90
2018-04-01T11:57:58.242Z,2.40
2018-04-01T12:00:25.128Z,2.57
2018-04-01T12:02:52.015Z,2.80
2018-04-01T12:05:18.937Z,2.27
2018-04-01T12:07:45.853Z,2.40
2018-04-01T12:10:12.741Z,2.50
2018-04-01T12:12:39.651Z,2.93
2018-04-01T12:15:06.546Z,2.90
2018-04-01T12:17:33.599Z,3.40
2018-04-01T12:20:00.519Z,2.50
2018-04-01T12:22:27.395Z,3.43
2018-04-01T12:24:54.287Z,3.10
2018-04-01T12:27:21.207Z,3.80
2018-04-01T12:29:48.102Z,2.63
2018-04-01T12:32:14.987Z,2.70
2018-04-01T12:34:41.899Z,2.67
2018-04-01T12:37:08.842Z,2.97
2018-04-01T12:39:35.730Z,2.90
2018-04-01T12:42:02.623Z,2.60
2018-04-01T12:44:29.510Z,2.63
2018-04-01T12:46:56.405Z,2.23
2018-04-01T12:49:23.309Z,2.53
2018-04-01T12:51:50.194Z,2.93
2018-04-01T12:54:17.084Z,3.43
2018-04-01T12:56:43.992Z,2.60
2018-04-01T12:59:10.880Z,2.73
2018-04-01T13:01:37.766Z,2.53
2018-04-01T13:04:04.668Z,2.30
2018-04-01T13:06:31.549Z,3.10
2018-04-01T13:08:58.449Z,2.30
2018-04-01T13:11:25.350Z,2.50
2018-04-01T13:13:52.238Z,2.33
2018-04-01T13:16:19.125Z,2.17
2018-04-01T13:18:46.057Z,2.60
2018-04-01T13:21:12.922Z,2.53
2018-04-01T13:23:39.805Z,2.30
2018-04-01T13:26:06.702Z,1.93
2018-04-01T13:28:33.589Z,1.40
2018-04-01T13:31:00.474Z,1.00
2018-04-01T13:33:27.375Z,0.63
2018-04-01T13:35:54.291Z,0.80
2018-04-01T13:38:21.174Z,0.80
2018-04-01T13:40:48.071Z,0.80
2018-04-01T13:43:14.964Z,3.30
2018-04-01T13:45:41.850Z,0.97
2018-04-01T13:48:08.743Z,1.40
2018-04-01T13:50:35.673Z,0.80
2018-04-01T13:53:02.542Z,0.80
2018-04-01T13:55:29.438Z,1.00
2018-04-01T13:57:56.328Z,1.20
2018-04-01T14:00:23.212Z,1.30
2018-04-01T14:02:50.144Z,1.60
2018-04-01T14:05:17.059Z,1.50
2018-04-01T14:07:43.957Z,1.53
2018-04-01T14:10:10.863Z,1.70
2018-04-01T14:12:37.785Z,1.30
2018-04-01T14:15:04.666Z,1.17
2018-04-01T14:17:31.562Z,1.00
2018-04-01T14:19:58.455Z,1.10
2018-04-01T14:22:25.378Z,1.30
2018-04-01T14:24:52.285Z,1.23
2018-04-01T14:27:19.178Z,1.60
2018-04-01T14:29:46.067Z,1.50
2018-04-01T14:32:12.983Z,1.70
2018-04-01T14:34:39.871Z,1.30
2018-04-01T14:37:06.763Z,1.10
2018-04-01T14:39:33.660Z,0.80
2018-04-01T14:42:00.543Z,0.80
2018-04-01T14:44:27.496Z,1.00
2018-04-01T14:46:54.411Z,0.70
2018-04-01T14:49:21.315Z,1.00
2018-04-01T14:51:48.257Z,0.77
2018-04-01T14:54:15.158Z,1.10
2018-04-01T14:56:42.059Z,0.77
2018-04-01T14:59:08.943Z,0.70
2018-04-01T15:01:35.843Z,1.07
2018-04-01T15:04:02.727Z,0.80
2018-04-01T15:06:29.718Z,0.80
2018-04-01T15:08:56.635Z,1.10
2018-04-01T15:11:23.518Z,1.20
2018-04-01T15:13:50.407Z,1.73
2018-04-01T15:16:17.306Z,1.57
2018-04-01T15:18:44.198Z,1.50
2018-04-01T15:21:11.989Z,1.80
2018-04-01T15:23:38.898Z,1.70
2018-04-01T15:26:05.778Z,1.70
2018-04-01T15:28:32.694Z,2.03
2018-04-01T15:30:59.833Z,1.80
2018-04-01T15:33:26.685Z,1.85
2018-04-01T15:35:53.680Z,1.70
2018-04-01T15:38:20.589Z,2.00
2018-04-01T15:40:47.584Z,2.40
2018-04-01T15:43:14.475Z,2.43
2018-04-01T15:45:41.367Z,2.40
2018-04-01T15:48:08.258Z,2.63
2018-04-01T15:50:35.147Z,3.13
2018-04-01T15:53:02.048Z,2.60
2018-04-01T15:55:28.940Z,4.00
2018-04-01T15:57:55.831Z,3.77
2018-04-01T16:00:22.737Z,3.37
2018-04-01T16:02:49.630Z,4.70
2018-04-01T16:05:16.506Z,4.00
2018-04-01T16:07:43.407Z,2.33
2018-04-01T16:10:10.394Z,2.43
2018-04-01T16:12:37.342Z,2.33
2018-04-01T16:15:04.237Z,1.90
2018-04-01T16:17:31.124Z,2.10
2018-04-01T16:19:58.002Z,2.30
2018-04-01T16:22:25.030Z,1.90
2018-04-01T16:24:51.920Z,2.47
2018-04-01T16:27:18.797Z,2.80
2018-04-01T16:29:45.704Z,2.40
2018-04-01T16:32:12.607Z,2.10
2018-04-01T16:34:39.500Z,2.60
2018-04-01T16:37:06.403Z,1.90
2018-04-01T16:39:33.283Z,2.13
2018-04-01T16:42:00.179Z,3.50
2018-04-01T16:44:27.085Z,2.83
2018-04-01T16:46:54.083Z,3.20
2018-04-01T16:49:20.971Z,2.67
2018-04-01T16:51:47.865Z,2.97
2018-04-01T16:54:14.776Z,3.20
2018-04-01T16:56:41.653Z,4.00
2018-04-01T16:59:08.583Z,3.50
2018-04-01T17:01:35.713Z,3.63
2018-04-01T17:04:02.682Z,3.90
2018-04-01T17:06:29.579Z,4.50
2018-04-01T17:08:56.495Z,4.10
2018-04-01T17:11:23.384Z,4.57
2018-04-01T17:13:50.282Z,5.72
2018-04-01T17:16:17.166Z,4.80
2018-04-01T17:18:44.046Z,4.70
2018-04-01T17:21:10.948Z,4.80
2018-04-01T17:23:37.908Z,5.80
2018-04-01T17:26:04.800Z,5.97
2018-04-01T17:28:31.694Z,5.10
2018-04-01T17:30:58.579Z,4.70
2018-04-01T17:33:25.461Z,4.60
2018-04-01T17:35:52.368Z,4.27
2018-04-01T17:38:19.256Z,4.60
2018-04-01T17:40:46.155Z,4.10
2018-04-01T17:43:13.056Z,3.67
2018-04-01T17:45:39.947Z,4.90
2018-04-01T17:48:06.837Z,4.60
2018-04-01T17:50:33.815Z,4.30
2018-04-01T17:53:00.702Z,4.93
2018-04-01T17:55:27.603Z,4.37
2018-04-01T17:57:54.498Z,4.40
2018-04-01T18:00:21.382Z,3.50
2018-04-01T18:02:48.267Z,3.87
2018-04-01T18:05:15.174Z,3.83
2018-04-01T18:07:42.052Z,3.27
2018-04-01T18:10:08.974Z,3.73
2018-04-01T18:12:35.910Z,3.73
2018-04-01T18:15:02.802Z,3.67
2018-04-01T18:17:29.798Z,3.80
2018-04-01T18:19:56.747Z,4.30
2018-04-01T18:22:23.666Z,3.90
2018-04-01T18:24:50.550Z,3.77
2018-04-01T18:27:17.443Z,5.30
2018-04-01T18:29:44.428Z,4.80
2018-04-01T18:32:11.315Z,4.60
2018-04-01T18:34:38.217Z,4.67
2018-04-01T18:37:05.166Z,4.20
2018-04-01T18:39:32.059Z,4.17
2018-04-01T18:41:58.951Z,4.50
2018-04-01T18:44:25.895Z,4.23
2018-04-01T18:46:52.840Z,5.03
2018-04-01T18:49:19.744Z,4.00
2018-04-01T18:51:46.679Z,5.33
2018-04-01T18:54:13.571Z,4.30
2018-04-01T18:56:40.491Z,6.07
2018-04-01T18:59:07.399Z,4.87
2018-04-01T19:01:34.295Z,4.97
2018-04-01T19:04:01.230Z,5.27
2018-04-01T19:06:28.122Z,6.03
2018-04-01T19:08:55.015Z,5.67
2018-04-01T19:11:21.920Z,6.90
2018-04-01T19:13:48.799Z,6.40
2018-04-01T19:16:16.230Z,5.63
2018-04-01T19:18:43.662Z,6.50
2018-04-01T19:21:11.104Z,6.70
2018-04-01T19:23:38.518Z,6.07
2018-04-01T19:26:05.960Z,5.93
2018-04-01T19:28:33.387Z,6.70
2018-04-01T19:31:00.820Z,7.07
2018-04-01T19:33:28.264Z,6.87
2018-04-01T19:35:55.688Z,7.03
2018-04-01T19:38:23.106Z,6.63
2018-04-01T19:40:50.646Z,7.90
2018-04-01T19:43:18.150Z,6.60
2018-04-01T19:45:45.653Z,7.00
2018-04-01T19:48:13.060Z,5.17
2018-04-01T19:50:40.538Z,4.57
2018-04-01T19:53:07.980Z,4.50
2018-04-01T19:55:35.418Z,3.60
2018-04-01T19:58:02.848Z,3.63
2018-04-01T20:00:30.271Z,3.90
2018-04-01T20:02:57.715Z,3.40
2018-04-01T20:05:25.148Z,3.43
2018-04-01T20:07:52.579Z,3.83
2018-04-01T20:10:20.015Z,3.20
2018-04-01T20:12:47.438Z,3.70
2018-04-01T20:15:14.935Z,3.57
2018-04-01T20:17:42.730Z,3.80
2018-04-01T20:20:10.203Z,4.70
2018-04-01T20:22:37.869Z,4.20
2018-04-01T20:25:05.314Z,3.50
2018-04-01T20:27:32.742Z,3.27
2018-04-01T20:30:00.163Z,3.13
2018-04-01T20:32:27.594Z,3.50
2018-04-01T20:34:55.022Z,4.77
2018-04-01T20:37:22.447Z,4.40
2018-04-01T20:39:49.877Z,4.60
2018-04-01T20:42:17.296Z,4.83
2018-04-01T20:44:44.732Z,5.97
2018-04-01T20:47:12.169Z,5.90
2018-04-01T20:49:39.604Z,6.10
2018-04-01T20:52:07.042Z,6.43
2018-04-01T20:54:34.475Z,6.17
2018-04-01T20:57:01.924Z,7.10
2018-04-01T20:59:29.349Z,6.80
2018-04-01T21:01:56.822Z,6.50
2018-04-01T21:04:24.221Z,8.07
2018-04-01T21:06:51.663Z,8.07
2018-04-01T21:09:19.103Z,7.87
2018-04-01T21:11:46.540Z,9.00
2018-04-01T21:14:13.977Z,9.53
2018-04-01T21:16:43.042Z,9.30
2018-04-01T21:19:11.321Z,9.50
2018-04-01T21:21:38.775Z,9.73
2018-04-01T21:24:06.207Z,9.50
2018-04-01T21:26:33.639Z,9.07
2018-04-01T21:29:01.073Z,10.23
2018-04-01T21:31:28.520Z,9.47
2018-04-01T21:33:55.947Z,9.50
2018-04-01T21:36:23.370Z,9.10
2018-04-01T21:38:50.831Z,9.10
2018-04-01T21:41:18.262Z,8.57
2018-04-01T21:43:45.711Z,8.32
2018-04-01T21:46:13.150Z,8.90
2018-04-01T21:48:40.678Z,10.00
2018-04-01T21:51:08.138Z,9.70
2018-04-01T21:53:35.583Z,10.07
2018-04-01T21:56:03.014Z,10.87
2018-04-01T21:58:30.454Z,10.03
2018-04-01T22:00:57.907Z,11.10
2018-04-01T22:03:25.339Z,10.70
2018-04-01T22:05:52.765Z,12.37
2018-04-01T22:08:20.215Z,10.67
2018-04-01T22:10:47.643Z,11.13
2018-04-01T22:13:15.092Z,10.87
2018-04-01T22:15:42.527Z,9.43
2018-04-01T22:18:09.959Z,9.23
2018-04-01T22:20:37.391Z,9.67
2018-04-01T22:23:12.844Z,9.57
2018-04-01T22:25:40.265Z,9.90
2018-04-01T22:28:07.687Z,10.90
2018-04-01T22:30:35.392Z,10.10
2018-04-01T22:33:02.828Z,9.30
2018-04-01T22:35:30.252Z,10.13
2018-04-01T22:37:58.446Z,11.15
2018-04-01T22:40:25.958Z,11.03
2018-04-01T22:42:53.378Z,12.77
2018-04-01T22:45:20.817Z,10.00
2018-04-01T22:47:48.258Z,11.43
2018-04-01T22:50:15.683Z,11.30
2018-04-01T22:52:43.133Z,11.13
2018-04-01T22:55:10.598Z,11.77
2018-04-01T22:57:38.030Z,11.80
2018-04-01T23:00:05.487Z,12.13
2018-04-01T23:02:32.927Z,11.80
2018-04-01T23:05:00.365Z,11.90
2018-04-01T23:07:28.073Z,11.10
2018-04-01T23:09:55.511Z,10.97
2018-04-01T23:12:22.971Z,10.90
2018-04-01T23:14:50.423Z,11.80
2018-04-01T23:17:17.928Z,11.60
2018-04-01T23:19:45.355Z,11.30
2018-04-01T23:22:12.799Z,10.40
2018-04-01T23:24:40.226Z,11.10
2018-04-01T23:27:07.650Z,10.93
2018-04-01T23:29:35.091Z,10.03
2018-04-01T23:32:02.530Z,10.13
2018-04-01T23:34:29.954Z,10.50
2018-04-01T23:36:57.394Z,10.63
2018-04-01T23:39:24.827Z,10.43
2018-04-01T23:41:52.258Z,10.33
2018-04-01T23:44:19.696Z,11.43
2018-04-01T23:46:47.122Z,11.00
2018-04-01T23:49:14.550Z,11.80
2018-04-01T23:51:41.994Z,11.70
2018-04-01T23:54:09.850Z,12.30
2018-04-01T23:56:39.268Z,11.33
2018-04-01T23:59:06.732Z,11.63
